createdAt,value
2022-12-12T00:00:52.706Z,97967.00
2022-12-12T00:03:25.944Z,97964.00
2022-12-12T00:05:56.293Z,97955.00
2022-12-12T00:08:30.118Z,97961.00
2022-12-12T00:10:57.173Z,97970.00
2022-12-12T00:13:31.407Z,97967.00
2022-12-12T00:15:58.598Z,97927.00
2022-12-12T00:18:31.855Z,97950.00
2022-12-12T00:20:58.967Z,97953.00
2022-12-12T00:23:33.121Z,97947.00
2022-12-12T00:26:12.820Z,97972.00
2022-12-12T00:28:39.730Z,97956.00
2022-12-12T00:31:13.062Z,97974.00
2022-12-12T00:33:47.026Z,97980.00
2022-12-12T00:36:14.117Z,97986.00
2022-12-12T00:38:47.803Z,97987.00
2022-12-12T00:41:14.834Z,97984.00
2022-12-12T00:43:48.860Z,97986.00
2022-12-12T00:46:17.846Z,97975.00
2022-12-12T00:48:51.873Z,97992.00
2022-12-12T00:51:21.401Z,97987.00
2022-12-12T00:53:55.992Z,97968.00
2022-12-12T00:56:23.498Z,97997.00
2022-12-12T00:58:56.907Z,97986.00
2022-12-12T01:01:28.076Z,97988.00
2022-12-12T01:04:01.831Z,97973.00
2022-12-12T01:06:35.718Z,97961.00
2022-12-12T01:09:02.968Z,97959.00
2022-12-12T01:11:36.945Z,98000.00
2022-12-12T01:14:10.882Z,97997.00
2022-12-12T01:16:37.851Z,98021.00
2022-12-12T01:19:10.890Z,98022.00
2022-12-12T01:21:38.023Z,98003.00
2022-12-12T01:24:11.860Z,98016.00
2022-12-12T01:26:38.805Z,98024.00
2022-12-12T01:29:11.888Z,98025.00
2022-12-12T01:31:44.789Z,98028.00
2022-12-12T01:34:11.785Z,98012.00
2022-12-12T01:36:44.908Z,97998.00
2022-12-12T01:39:17.913Z,98034.00
2022-12-12T01:41:44.802Z,98041.00
2022-12-12T01:44:48.830Z,98039.00
2022-12-12T01:47:18.408Z,98013.00
2022-12-12T01:50:01.916Z,98024.00
2022-12-12T01:52:39.941Z,98011.00
2022-12-12T01:55:14.440Z,98040.00
2022-12-12T01:57:44.965Z,98035.00
2022-12-12T02:00:18.850Z,98036.00
2022-12-12T02:02:45.923Z,98023.00
2022-12-12T02:05:26.056Z,98012.00
2022-12-12T02:07:53.215Z,98037.00
2022-12-12T02:10:26.928Z,98004.00
2022-12-12T02:13:01.560Z,98021.00
2022-12-12T02:15:36.996Z,97997.00
2022-12-12T02:19:01.960Z,98017.00
2022-12-12T02:22:11.924Z,98042.00
2022-12-12T02:24:58.971Z,98054.00
2022-12-12T02:28:01.086Z,98053.00
2022-12-12T02:30:54.104Z,98059.00
2022-12-12T02:33:57.902Z,98061.00
2022-12-12T02:36:37.034Z,98059.00
2022-12-12T02:39:27.833Z,98056.00
2022-12-12T02:42:04.948Z,98073.00
2022-12-12T02:44:41.786Z,98040.00
2022-12-12T02:47:25.928Z,98054.00
2022-12-12T02:50:04.790Z,98074.00
2022-12-12T02:52:39.056Z,98058.00
2022-12-12T02:55:07.557Z,98076.00
2022-12-12T02:57:40.936Z,98054.00
2022-12-12T03:00:18.439Z,98077.00
2022-12-12T03:02:57.900Z,98084.00
2022-12-12T03:05:58.929Z,98086.00
2022-12-12T03:08:51.996Z,98088.00
2022-12-12T03:12:11.931Z,98085.00
2022-12-12T03:15:51.969Z,98064.00
2022-12-12T03:19:00.923Z,98068.00
2022-12-12T03:21:47.001Z,98080.00
2022-12-12T03:24:36.882Z,98069.00
2022-12-12T03:27:24.915Z,98072.00
2022-12-12T03:30:21.420Z,98072.00
2022-12-12T03:33:11.008Z,98060.00
2022-12-12T03:35:46.697Z,98071.00
2022-12-12T03:38:26.969Z,98051.00
2022-12-12T03:41:05.975Z,98056.00
2022-12-12T03:43:37.682Z,98047.00
2022-12-12T03:46:25.935Z,98088.00
2022-12-12T03:49:19.916Z,98085.00
2022-12-12T03:51:55.667Z,98069.00
2022-12-12T03:54:41.973Z,98082.00
2022-12-12T03:57:19.039Z,98092.00
2022-12-12T04:00:09.010Z,98069.00
2022-12-12T04:02:53.077Z,98083.00
2022-12-12T04:06:39.907Z,98097.00
2022-12-12T04:09:18.317Z,98096.00
2022-12-12T04:12:30.002Z,98101.00
2022-12-12T04:15:52.984Z,98113.00
2022-12-12T04:18:30.958Z,98111.00
2022-12-12T04:21:16.000Z,98128.00
2022-12-12T04:24:18.053Z,98116.00
2022-12-12T04:27:22.894Z,98116.00
2022-12-12T04:30:17.995Z,98125.00
2022-12-12T04:33:19.016Z,98119.00
2022-12-12T04:35:54.955Z,98083.00
2022-12-12T04:38:23.300Z,98105.00
2022-12-12T04:40:59.961Z,98116.00
2022-12-12T04:43:29.939Z,98131.00
2022-12-12T04:46:12.100Z,98126.00
2022-12-12T04:48:51.855Z,98136.00
2022-12-12T04:51:37.906Z,98120.00
2022-12-12T04:54:26.584Z,98130.00
2022-12-12T04:57:03.085Z,98151.00
2022-12-12T04:59:30.076Z,98134.00
2022-12-12T05:02:39.022Z,98148.00
2022-12-12T05:05:29.955Z,98145.00
2022-12-12T05:08:25.951Z,98156.00
2022-12-12T05:10:55.300Z,98140.00
2022-12-12T05:13:34.895Z,98148.00
2022-12-12T05:16:04.112Z,98153.00
2022-12-12T05:18:37.993Z,98139.00
2022-12-12T05:21:11.929Z,98149.00
2022-12-12T05:23:44.975Z,98167.00
2022-12-12T05:26:27.390Z,98156.00
2022-12-12T05:29:06.734Z,98170.00
2022-12-12T05:31:34.443Z,98184.00
2022-12-12T05:34:08.057Z,98160.00
2022-12-12T05:36:41.972Z,98159.00
2022-12-12T05:39:08.912Z,98180.00
2022-12-12T05:41:41.942Z,98180.00
2022-12-12T05:44:08.880Z,98181.00
2022-12-12T05:46:41.980Z,98183.00
2022-12-12T05:49:15.000Z,98172.00
2022-12-12T05:51:47.952Z,98202.00
2022-12-12T05:54:14.881Z,98215.00
2022-12-12T05:56:41.879Z,98169.00
2022-12-12T05:59:15.098Z,98208.00
2022-12-12T06:01:42.144Z,98186.00
2022-12-12T06:04:09.165Z,98198.00
2022-12-12T06:06:42.997Z,98184.00
2022-12-12T06:09:09.975Z,98188.00
2022-12-12T06:11:36.920Z,98164.00
2022-12-12T06:14:10.988Z,98187.00
2022-12-12T06:16:37.942Z,98201.00
2022-12-12T06:19:11.991Z,98181.00
2022-12-12T06:21:38.980Z,98191.00
2022-12-12T06:24:14.005Z,98197.00
2022-12-12T06:26:41.062Z,98215.00
2022-12-12T06:29:15.133Z,98201.00
2022-12-12T06:31:42.111Z,98202.00
2022-12-12T06:34:16.018Z,98198.00
2022-12-12T06:36:43.012Z,98208.00
2022-12-12T06:39:17.007Z,98233.00
2022-12-12T06:41:50.999Z,98200.00
2022-12-12T06:44:18.048Z,98205.00
2022-12-12T06:46:45.181Z,98196.00
2022-12-12T06:49:19.008Z,98219.00
2022-12-12T06:51:46.110Z,98210.00
2022-12-12T06:54:14.572Z,98212.00
2022-12-12T06:56:48.673Z,98189.00
2022-12-12T06:59:16.347Z,98231.00
2022-12-12T07:01:50.006Z,98220.00
2022-12-12T07:04:17.101Z,98253.00
2022-12-12T07:06:51.022Z,98221.00
2022-12-12T07:09:18.224Z,98250.00
2022-12-12T07:11:52.040Z,98213.00
2022-12-12T07:14:25.073Z,98220.00
2022-12-12T07:16:52.244Z,98261.00
2022-12-12T07:19:26.016Z,98244.00
2022-12-12T07:21:52.903Z,98261.00
2022-12-12T07:24:26.045Z,98250.00
2022-12-12T07:26:52.987Z,98272.00
2022-12-12T07:29:25.987Z,98282.00
2022-12-12T07:31:52.895Z,98267.00
2022-12-12T07:34:26.170Z,98262.00
2022-12-12T07:36:55.445Z,98237.00
2022-12-12T07:39:32.979Z,98289.00
2022-12-12T07:42:00.096Z,98291.00
2022-12-12T07:44:27.009Z,98275.00
2022-12-12T07:47:00.273Z,98293.00
2022-12-12T07:49:35.130Z,98294.00
2022-12-12T07:52:02.381Z,98291.00
2022-12-12T07:54:36.345Z,98285.00
2022-12-12T07:57:03.490Z,98287.00
2022-12-12T07:59:37.063Z,98292.00
2022-12-12T08:02:04.210Z,98297.00
2022-12-12T08:04:38.238Z,98307.00
2022-12-12T08:07:08.475Z,98329.00
2022-12-12T08:09:43.048Z,98309.00
2022-12-12T08:12:10.023Z,98326.00
2022-12-12T08:14:37.477Z,98324.00
2022-12-12T08:17:11.070Z,98326.00
2022-12-12T08:19:38.203Z,98340.00
2022-12-12T08:22:11.991Z,98323.00
2022-12-12T08:24:45.732Z,98329.00
2022-12-12T08:27:18.985Z,98296.00
2022-12-12T08:29:45.994Z,98313.00
2022-12-12T08:32:19.148Z,98318.00
2022-12-12T08:34:49.161Z,98309.00
2022-12-12T08:37:23.126Z,98324.00
2022-12-12T08:39:57.071Z,98321.00
2022-12-12T08:42:24.043Z,98319.00
2022-12-12T08:44:51.291Z,98315.00
2022-12-12T08:47:25.124Z,98282.00
2022-12-12T08:49:59.075Z,98287.00
2022-12-12T08:52:26.127Z,98294.00
2022-12-12T08:55:00.235Z,98320.00
2022-12-12T08:57:27.293Z,98345.00
2022-12-12T09:00:01.092Z,98309.00
2022-12-12T09:02:28.204Z,98350.00
2022-12-12T09:05:02.163Z,98344.00
2022-12-12T09:07:29.155Z,98361.00
2022-12-12T09:09:56.097Z,98355.00
2022-12-12T09:12:30.152Z,98360.00
2022-12-12T09:14:57.110Z,98361.00
2022-12-12T09:17:30.122Z,98356.00
2022-12-12T09:20:04.045Z,98363.00
2022-12-12T09:22:30.973Z,98347.00
2022-12-12T09:25:04.141Z,98368.00
2022-12-12T09:27:37.987Z,98362.00
2022-12-12T09:30:12.044Z,98325.00
2022-12-12T09:32:46.123Z,98321.00
2022-12-12T09:35:20.301Z,98335.00
2022-12-12T09:37:54.240Z,98356.00
2022-12-12T09:40:55.569Z,98340.00
2022-12-12T09:43:29.693Z,98339.00
2022-12-12T09:46:04.643Z,98337.00
2022-12-12T09:48:47.927Z,98344.00
2022-12-12T09:51:21.234Z,98336.00
2022-12-12T10:01:56.282Z,98365.00
2022-12-12T10:05:01.243Z,98356.00
2022-12-12T10:07:40.673Z,98303.00
2022-12-12T10:10:29.236Z,98337.00
2022-12-12T10:12:56.741Z,98315.00
2022-12-12T10:15:46.153Z,98316.00
2022-12-12T10:18:23.471Z,98332.00
2022-12-12T10:21:00.262Z,98334.00
2022-12-12T10:23:38.370Z,98337.00
2022-12-12T10:29:06.256Z,98327.00
2022-12-12T10:45:33.943Z,98332.00
2022-12-12T10:59:04.371Z,98345.00
2022-12-12T11:04:28.867Z,98337.00
2022-12-12T11:06:56.432Z,98338.00
2022-12-12T11:15:06.311Z,98359.00
2022-12-12T11:20:23.928Z,98329.00
2022-12-12T11:22:58.128Z,98325.00
2022-12-12T11:25:30.866Z,98331.00
2022-12-12T11:28:07.217Z,98335.00
2022-12-12T11:30:37.746Z,98330.00
2022-12-12T11:33:13.533Z,98294.00
2022-12-12T11:35:47.093Z,98291.00
2022-12-12T11:38:26.185Z,98322.00
2022-12-12T11:41:02.376Z,98313.00
2022-12-12T11:43:43.305Z,98293.00
2022-12-12T11:46:34.574Z,98283.00
2022-12-12T11:49:10.146Z,98253.00
2022-12-12T11:51:41.531Z,98263.00
2022-12-12T11:54:36.063Z,98286.00
2022-12-12T11:57:19.080Z,98282.00
2022-12-12T11:59:46.003Z,98286.00
2022-12-12T12:02:27.100Z,98274.00
2022-12-12T12:05:55.116Z,98267.00
2022-12-12T12:08:40.152Z,98267.00
2022-12-12T12:11:50.097Z,98263.00
2022-12-12T12:15:09.083Z,98272.00
2022-12-12T12:18:01.413Z,98287.00
2022-12-12T12:20:42.133Z,98305.00
2022-12-12T12:23:25.505Z,98285.00
2022-12-12T12:26:03.161Z,98295.00
2022-12-12T12:29:32.135Z,98266.00
2022-12-12T12:32:18.294Z,98279.00
2022-12-12T12:35:19.195Z,98294.00
2022-12-12T12:38:11.397Z,98278.00
2022-12-12T12:41:01.317Z,98282.00
2022-12-12T12:44:10.753Z,98272.00
2022-12-12T12:46:59.218Z,98269.00
2022-12-12T12:50:20.141Z,98279.00
2022-12-12T12:53:00.343Z,98234.00
2022-12-12T12:55:40.038Z,98266.00
2022-12-12T12:58:14.592Z,98260.00
2022-12-12T13:00:42.125Z,98240.00
2022-12-12T13:03:26.564Z,98213.00
2022-12-12T13:06:03.315Z,98224.00
2022-12-12T13:09:07.040Z,98201.00
2022-12-12T13:11:39.892Z,98207.00
2022-12-12T13:14:30.275Z,98223.00
2022-12-12T13:16:59.696Z,98197.00
2022-12-12T13:19:49.206Z,98203.00
2022-12-12T13:22:41.664Z,98228.00
2022-12-12T13:25:21.054Z,98217.00
2022-12-12T13:27:58.668Z,98211.00
2022-12-12T13:30:36.477Z,98221.00
2022-12-12T13:33:18.763Z,98245.00
2022-12-12T13:35:56.335Z,98233.00
2022-12-12T13:38:31.567Z,98221.00
2022-12-12T13:41:08.297Z,98246.00
2022-12-12T13:43:38.413Z,98252.00
2022-12-12T13:46:33.173Z,98248.00
2022-12-12T13:49:06.971Z,98242.00
2022-12-12T13:51:46.253Z,98241.00
2022-12-12T13:54:14.644Z,98251.00
2022-12-12T13:56:52.288Z,98253.00
2022-12-12T13:59:22.478Z,98222.00
2022-12-12T14:02:07.387Z,98197.00
2022-12-12T14:04:37.054Z,98208.00
2022-12-12T14:07:25.425Z,98233.00
2022-12-12T14:09:59.000Z,98201.00
2022-12-12T14:12:37.160Z,98211.00
2022-12-12T14:15:28.347Z,98210.00
2022-12-12T14:18:09.808Z,98226.00
2022-12-12T14:20:37.179Z,98227.00
2022-12-12T14:23:20.225Z,98232.00
2022-12-12T14:25:54.310Z,98224.00
2022-12-12T14:28:33.081Z,98223.00
2022-12-12T14:31:19.997Z,98254.00
2022-12-12T14:34:24.353Z,98234.00
2022-12-12T14:37:35.229Z,98284.00
2022-12-12T14:40:24.315Z,98271.00
2022-12-12T14:43:20.402Z,98282.00
2022-12-12T14:45:55.252Z,98273.00
2022-12-12T14:48:38.151Z,98249.00
2022-12-12T14:51:28.984Z,98270.00
2022-12-12T14:54:04.196Z,98268.00
2022-12-12T14:56:52.950Z,98235.00
2022-12-12T14:59:42.178Z,98288.00
2022-12-12T15:02:26.343Z,98270.00
2022-12-12T15:05:04.191Z,98261.00
2022-12-12T15:07:43.170Z,98255.00
2022-12-12T15:10:23.480Z,98279.00
2022-12-12T15:12:57.186Z,98278.00
2022-12-12T15:15:32.294Z,98296.00
2022-12-12T15:18:07.149Z,98301.00
2022-12-12T15:20:34.201Z,98297.00
2022-12-12T15:23:12.298Z,98295.00
2022-12-12T15:25:48.341Z,98258.00
2022-12-12T15:28:23.195Z,98245.00
2022-12-12T15:30:53.122Z,98258.00
2022-12-12T15:33:33.543Z,98291.00
2022-12-12T15:36:03.236Z,98249.00
2022-12-12T15:38:37.228Z,98250.00
2022-12-12T15:41:09.715Z,98268.00
2022-12-12T15:43:45.522Z,98266.00
2022-12-12T15:46:22.289Z,98288.00
2022-12-12T15:48:56.329Z,98251.00
2022-12-12T15:51:35.293Z,98274.00
2022-12-12T15:54:02.292Z,98309.00
2022-12-12T15:56:36.261Z,98309.00
2022-12-12T15:59:09.470Z,98304.00
2022-12-12T16:01:43.357Z,98301.00
2022-12-12T16:04:17.267Z,98328.00
2022-12-12T16:06:52.274Z,98274.00
2022-12-12T16:09:26.371Z,98273.00
2022-12-12T16:12:04.534Z,98299.00
2022-12-12T16:14:41.273Z,98270.00
2022-12-12T16:17:24.267Z,98308.00
2022-12-12T16:20:02.356Z,98310.00
2022-12-12T16:22:51.259Z,98310.00
2022-12-12T16:25:35.249Z,98289.00
2022-12-12T16:28:36.284Z,98272.00
2022-12-12T16:31:05.906Z,98272.00
2022-12-12T16:33:44.324Z,98281.00
2022-12-12T16:36:23.404Z,98272.00
2022-12-12T16:38:50.607Z,98280.00
2022-12-12T16:41:24.407Z,98324.00
2022-12-12T16:43:58.463Z,98337.00
2022-12-12T16:46:32.275Z,98310.00
2022-12-12T16:48:59.759Z,98289.00
2022-12-12T16:51:39.451Z,98294.00
2022-12-12T16:54:13.270Z,98311.00
2022-12-12T16:56:40.429Z,98333.00
2022-12-12T16:59:14.334Z,98316.00
2022-12-12T17:01:41.434Z,98354.00
2022-12-12T17:04:25.327Z,98344.00
2022-12-12T17:06:52.450Z,98332.00
2022-12-12T17:09:29.956Z,98315.00
2022-12-12T17:12:04.326Z,98364.00
2022-12-12T17:14:31.439Z,98329.00
2022-12-12T17:17:05.385Z,98308.00
2022-12-12T17:19:32.567Z,98330.00
2022-12-12T17:22:06.303Z,98333.00
2022-12-12T17:24:40.281Z,98314.00
2022-12-12T17:27:13.246Z,98321.00
2022-12-12T17:29:40.291Z,98330.00
2022-12-12T17:32:14.250Z,98320.00
2022-12-12T17:34:41.635Z,98335.00
2022-12-12T17:37:15.356Z,98320.00
2022-12-12T17:39:49.329Z,98327.00
2022-12-12T17:42:23.323Z,98296.00
2022-12-12T17:44:57.361Z,98313.00
2022-12-12T17:47:24.399Z,98308.00
2022-12-12T17:49:58.354Z,98303.00
2022-12-12T17:52:32.248Z,98299.00
2022-12-12T17:55:54.695Z,98333.00
2022-12-12T17:57:53.390Z,98329.00
2022-12-12T18:00:20.714Z,98310.00
2022-12-12T18:03:01.512Z,98324.00
2022-12-12T18:05:28.591Z,98316.00
2022-12-12T18:08:02.291Z,98305.00
2022-12-12T18:10:29.419Z,98350.00
2022-12-12T18:13:03.290Z,98336.00
2022-12-12T18:15:30.213Z,98320.00
2022-12-12T18:18:03.246Z,98343.00
2022-12-12T18:20:36.278Z,98333.00
2022-12-12T18:23:09.324Z,98299.00
2022-12-12T18:25:36.798Z,98343.00
2022-12-12T18:28:10.272Z,98309.00
2022-12-12T18:30:40.278Z,98328.00
2022-12-12T18:33:17.230Z,98300.00
2022-12-12T18:35:50.372Z,98301.00
2022-12-12T18:38:17.376Z,98316.00
2022-12-12T18:40:44.536Z,98311.00
2022-12-12T18:43:20.285Z,98317.00
2022-12-12T18:45:47.332Z,98312.00
2022-12-12T18:48:21.365Z,98333.00
2022-12-12T18:50:55.353Z,98349.00
2022-12-12T18:53:29.265Z,98362.00
2022-12-12T18:55:56.209Z,98362.00
2022-12-12T18:58:29.276Z,98358.00
2022-12-12T19:01:12.333Z,98364.00
2022-12-12T19:03:40.459Z,98351.00
2022-12-12T19:06:16.340Z,98368.00
2022-12-12T19:08:50.282Z,98371.00
2022-12-12T19:11:17.363Z,98371.00
2022-12-12T19:13:51.277Z,98392.00
2022-12-12T19:16:19.331Z,98406.00
2022-12-12T19:18:53.297Z,98387.00
2022-12-12T19:21:29.268Z,98408.00
2022-12-12T19:23:56.180Z,98404.00
2022-12-12T19:26:32.298Z,98414.00
2022-12-12T19:29:14.280Z,98404.00
2022-12-12T19:31:41.317Z,98412.00
2022-12-12T19:34:15.307Z,98402.00
2022-12-12T19:36:42.332Z,98400.00
2022-12-12T19:39:17.303Z,98406.00
2022-12-12T19:41:51.253Z,98420.00
2022-12-12T19:44:24.231Z,98399.00
2022-12-12T19:46:51.276Z,98400.00
2022-12-12T19:49:31.245Z,98405.00
2022-12-12T19:52:07.914Z,98401.00
2022-12-12T19:54:44.457Z,98394.00
2022-12-12T19:57:11.411Z,98405.00
2022-12-12T19:59:45.316Z,98398.00
2022-12-12T20:02:12.314Z,98416.00
2022-12-12T20:04:45.325Z,98421.00
2022-12-12T20:07:12.450Z,98406.00
2022-12-12T20:09:39.406Z,98373.00
2022-12-12T20:12:13.312Z,98365.00
2022-12-12T20:14:46.330Z,98417.00
2022-12-12T20:17:13.224Z,98420.00
2022-12-12T20:19:46.356Z,98417.00
2022-12-12T20:22:20.278Z,98399.00
2022-12-12T20:24:47.532Z,98383.00
2022-12-12T20:27:21.348Z,98394.00
2022-12-12T20:29:48.354Z,98383.00
2022-12-12T20:32:15.348Z,98430.00
2022-12-12T20:34:49.330Z,98419.00
2022-12-12T20:37:20.010Z,98395.00
2022-12-12T20:39:54.348Z,98408.00
2022-12-12T20:42:21.331Z,98408.00
2022-12-12T20:44:55.273Z,98425.00
2022-12-12T20:47:28.383Z,98427.00
2022-12-12T20:49:55.320Z,98444.00
2022-12-12T20:52:28.300Z,98412.00
2022-12-12T20:55:01.321Z,98435.00
2022-12-12T20:57:28.302Z,98389.00
2022-12-12T21:00:01.334Z,98426.00
2022-12-12T21:02:30.333Z,98413.00
2022-12-12T21:05:04.299Z,98426.00
2022-12-12T21:07:32.165Z,98431.00
2022-12-12T21:10:05.392Z,98415.00
2022-12-12T21:12:32.391Z,98408.00
2022-12-12T21:15:02.730Z,98406.00
2022-12-12T21:17:36.362Z,98430.00
2022-12-12T21:20:24.333Z,98436.00
2022-12-12T21:22:57.348Z,98448.00
2022-12-12T21:25:24.309Z,98409.00
2022-12-12T21:27:57.382Z,98400.00
2022-12-12T21:30:24.418Z,98416.00
2022-12-12T21:32:51.394Z,98417.00
2022-12-12T21:35:25.465Z,98404.00
2022-12-12T21:37:52.436Z,98436.00
2022-12-12T21:40:19.746Z,98421.00
2022-12-12T21:42:53.324Z,98402.00
2022-12-12T21:45:20.318Z,98423.00
2022-12-12T21:47:53.362Z,98444.00
2022-12-12T21:50:20.300Z,98452.00
2022-12-12T21:52:53.336Z,98438.00
2022-12-12T21:55:20.389Z,98429.00
2022-12-12T21:57:53.412Z,98423.00
2022-12-12T22:00:20.526Z,98441.00
2022-12-12T22:02:54.417Z,98468.00
2022-12-12T22:05:28.337Z,98457.00
2022-12-12T22:07:55.344Z,98448.00
2022-12-12T22:10:29.429Z,98483.00
2022-12-12T22:12:57.038Z,98477.00
2022-12-12T22:15:31.457Z,98463.00
2022-12-12T22:17:58.585Z,98467.00
2022-12-12T22:20:32.374Z,98472.00
2022-12-12T22:22:59.271Z,98483.00
2022-12-12T22:25:32.374Z,98467.00
2022-12-12T22:27:59.342Z,98461.00
2022-12-12T22:30:35.685Z,98456.00
2022-12-12T22:33:02.760Z,98491.00
2022-12-12T22:35:36.508Z,98479.00
2022-12-12T22:38:03.631Z,98463.00
2022-12-12T22:40:37.421Z,98488.00
2022-12-12T22:43:04.334Z,98482.00
2022-12-12T22:45:37.381Z,98486.00
2022-12-12T22:48:04.480Z,98510.00
2022-12-12T22:50:38.496Z,98506.00
2022-12-12T22:53:12.381Z,98494.00
2022-12-12T22:55:46.396Z,98525.00
2022-12-12T22:58:13.321Z,98524.00
2022-12-12T23:00:40.260Z,98535.00
2022-12-12T23:03:13.583Z,98527.00
2022-12-12T23:05:40.651Z,98515.00
2022-12-12T23:08:14.391Z,98515.00
2022-12-12T23:10:41.339Z,98519.00
2022-12-12T23:13:14.483Z,98497.00
2022-12-12T23:15:48.449Z,98492.00
2022-12-12T23:18:15.435Z,98487.00
2022-12-12T23:20:45.203Z,98509.00
2022-12-12T23:23:18.489Z,98487.00
2022-12-12T23:25:52.366Z,98484.00
2022-12-12T23:28:19.296Z,98480.00
2022-12-12T23:30:52.387Z,98511.00
2022-12-12T23:33:19.639Z,98503.00
2022-12-12T23:35:54.455Z,98486.00
2022-12-12T23:38:23.622Z,98491.00
2022-12-12T23:40:57.351Z,98485.00
2022-12-12T23:43:24.277Z,98469.00
2022-12-12T23:45:58.463Z,98456.00
2022-12-12T23:48:35.580Z,98490.00
2022-12-12T23:51:09.773Z,98465.00
2022-12-12T23:53:43.435Z,98453.00
2022-12-12T23:56:21.553Z,98463.00
2022-12-12T23:58:57.812Z,98442.00
